Aviation Digital Data Service (ADDS)

Output produced by METARs form (1202 UTC 23 August 2017)
found at http://aviationweather.gov/adds/metars/
 
KATL 231138Z 2312/2418 26006KT P6SM SCT020 
     FM231400 29006KT P6SM SCT025 SCT120 
     FM231600 31007KT P6SM VCSH BKN045 
     TEMPO 2317/2321 3SM TSRA BKN035CB 
     FM240000 32006KT P6SM SCT045 SCT120 
     FM241300 02005KT P6SM SCT035